Heusden, Belgium
Current Conditions -  °F | °C
As of 2:08 AM on Wednesday 28 Jan 2015 (Local Time) from EBDT Reporting Station
Broken Clouds Broken Clouds  
Wind Chill: 35°   Ceiling: 3700
Heat Index: 39°   Visibility: 3mi
Dew Point: 37°   Wind: 6mph
Humidity: 93%   Direction: 220°SW
Pressure: 30.12"   Gusts: NA
Location:  51.04°N, 5.28°E
Report Text: EBDT 280108Z AUTO 22005KT 4900 FEW022/// SCT027/// BKN037/// 04/03 Q1020 GRN
Loading
Personal Weather Stations






























Interactive Weather Map New forecast layout! Learn more

10-Day Weather Forecast

Advertisements
Track Severe Weather on mobile